Holly Springs, GA (30142)

11:38 PM EDT on March 28, 2015 (GMT -0400)
Woodstock | | Change Station
CLOSE
Current Station
Personal Weather Station
Location: Woodstock, GA
Elevation: 922 ft
Nearby Weather Stations
Active Advisory: Freeze Warning

Elev 922 ft 34.13 °N, 84.47 °W | Updated 1 second ago

Clear
Clear
34.0 °F
Feels Like 34 °F
N
0.0
Wind Variable Wind from North
Gusts 0.0 mph

Today
High -- | Low -- °F
--% Chance of Precip.
Yesterday
High -- | Low -- °F
Precip. -- in
7:31 AM 7:55 PM
Waxing Gibbous, 68% visible
Pressure 30.25 in
Visibility 10.0 miles
Clouds Clear
Windchill 34 °F
Dew Point 20 °F
Humidity 57%
Rainfall 0.00 in
Snow Depth Not available.
UV 0 out of 12
Pollen 10.30 out of 12
Air Quality Not available.
Flu Activity Not available.
METAR KCNI 290315Z AUTO 00000KT 10SM CLR 04/M22 A3025 RMK AO2

More Conditions Fewer Conditions

Pressure 30.25 in
Visibility 10.0 miles
Clouds Clear
Windchill 34 °F
Dew Point 20 °F
Humidity 57%
Rainfall 0.00 in
Snow Depth Not available.
UV 0 out of 12
Pollen 10.30 out of 12
Air Quality Not available.
Flu Activity Not available.
METAR KCNI 290315Z AUTO 00000KT 10SM CLR 04/M22 A3025 RMK AO2

More Conditions Fewer Conditions

10-Day Weather Forecast

Almanac

Astronomy

Mar. 28, 2015 Rise Set
Actual Time
Civil Twilight
Nautical Twilight
Astronomical Twilight
Moon
Length of Visible Light
Length of Day
Tomorrow will be .
, % of the Moon is Illuminated

Today's Extremes

State Highs State Lows

Community

WunderPhotos

Upload Photos

1,809,175 photos uploaded!

WunderBlogs® & News

Nearby

Air Quality

  Air Quality AQ Index Pollutant
Not available.

Snow Depth

Station Depth Elevation

Earthquake Activity

City Distance Mag. Time & Date
Minimum magnitude displayed is 2.5.

Coastal Water Temperatures

Place Temperature

Stations

Nearby Weather Stations

Station Location Temp. Windchill Dew Point Humidity Wind Precip. Elev Updated Type
                   
Freeze Warning
Statement as of 9:53 PM EDT on March 28, 2015

... Freeze warning remains in effect until 10 am EDT Sunday...

* locations... north of a line from Hamilton to Macon and
Louisville.

* Temperatures... mid 20s to lower 30s... except low to mid 20s in the
mountains.

* Timing... midnight to 8 am Sunday morning.

* Impacts... freezing temperatures could damage tender vegetation.

Precautionary/preparedness actions...

A freeze warning means freezing temperatures are forecast to threaten
outdoor plants. Those with agricultural interests in the warned area
are advised to harvest or protect tender vegetation.